Bookmark and Share
Track history (hours):
 

Minerva Xanthe

Last reported at 2013-May-19 17:31 UTC. Time now 2014-Apr-24 11:04 UTC.
Position N 35°52' E 014°46'.
Warning: this ship's position is months out of date.

Length 183 m; draft 8.6 m.

Type: Ship. MMSI: 256378000.

NotesDate/timePositionNaut miles runAvg speedWind from/ knotsBaromVisibWave heightAir tempDewpointWater temp
2013-May-19 17:31N 35°52' E 014°46'  
2013-May-14 00:32N 36°18' W 008°07'1211.1
2013-May-13 23:25N 36°22' W 008°22'911.0
2013-May-13 22:33N 36°24' W 008°33'1110.9
2013-May-13 21:34N 36°27' W 008°46'1111.0
2013-May-13 20:34N 36°30' W 008°59'1111.2
2013-May-13 19:33N 36°33' W 009°13'1111.3
2013-May-13 18:33N 36°39' W 009°24'1111.4
2013-May-13 17:34N 36°48' W 009°33'1211.3
2013-May-13 16:32N 36°59' W 009°36'1111.3
2013-May-13 15:34N 37°10' W 009°40'1211.5
2013-May-13 14:34N 37°21' W 009°43'1211.5
2013-May-13 13:33N 37°32' W 009°46'1211.6
2013-May-13 12:33N 37°44' W 009°49'1111.5
2013-May-13 11:33N 37°55' W 009°53'1212.0
2013-May-13 10:33N 38°07' W 009°56'1212.5
2013-May-13 09:33N 38°19' W 009°60'1212.1
2013-May-13 08:32N 38°31' W 010°03'25912.3
2013-May-12 11:29N 42°49' W 010°07'1212.5
2013-May-12 10:33N 43°01' W 010°07'1312.4
2013-May-12 09:33N 43°13' W 010°07'1211.9
2013-May-12 08:31N 43°25' W 010°00'1212.3
2013-May-12 07:31N 43°36' W 009°53'1212.4
2013-May-12 06:33N 43°46' W 009°45'3712.3
2013-May-12 03:33N 44°19' W 009°21'53710.5
2013-May-10 00:33N 50°32' E 000°10'9 8.8
2013-May-09 23:34N 50°34' E 000°23'8 8.3
2013-May-09 22:34N 50°38' E 000°36'9 8.5
2013-May-09 21:33N 50°42' E 000°47'21 9.8
2013-May-09 19:25N 50°53' E 001°15'1112.5
2013-May-09 18:34N 51°01' E 001°26'1212.4
2013-May-09 17:34N 51°10' E 001°40'  

Dump ship's entire track history

sailing weather and tide predictions

Minerva Xanthe — 9HSR8 — position and weather